Time;durP1;ratioP1;P1;durP2;ratioP2;P2;SDS_P1;SDS_P2;PMS_P1;PMS_P2;Temp;Humidity;BMP_temperature;BMP_pressure;BME280_temperature;BME280_humidity;BME280_pressure;Samples;Min_cycle;Max_cycle;Signal;HPM_P1;HPM_P2
2021/06/14 00:01:29;;;;;;;3.53;1.45;;;;;;;16.24;50.36;97296.94;5040381;28;20045;-65
2021/06/14 00:03:55;;;;;;;2.72;1.10;;;;;;;16.12;50.51;97296.50;5038249;28;20152;-66
2021/06/14 00:06:20;;;;;;;2.72;1.20;;;;;;;16.14;50.32;97294.13;5017456;28;20051;-66
2021/06/14 00:08:46;;;;;;;4.68;1.65;;;;;;;16.05;50.98;97295.25;5041935;28;20404;-65
2021/06/14 00:11:11;;;;;;;3.33;1.48;;;;;;;16.04;50.60;97295.66;5023525;28;20102;-64
2021/06/14 00:13:38;;;;;;;2.75;1.50;;;;;;;16.07;50.73;97291.34;5043907;28;20080;-68
2021/06/14 00:16:05;;;;;;;4.68;1.40;;;;;;;16.04;50.37;97290.94;5023530;28;20516;-68
2021/06/14 00:18:32;;;;;;;4.85;1.63;;;;;;;15.98;50.79;97289.72;5032597;28;20049;-65
2021/06/14 00:21:01;;;;;;;4.10;1.48;;;;;;;16.00;50.74;97300.38;5025321;28;20124;-63
2021/06/14 00:23:29;;;;;;;3.90;1.50;;;;;;;16.00;50.58;97292.09;5021409;28;20059;-64
2021/06/14 00:25:55;;;;;;;3.53;1.50;;;;;;;16.02;50.27;97298.78;5025096;28;20052;-66
2021/06/14 00:28:21;;;;;;;5.15;1.55;;;;;;;15.95;50.31;97287.72;5018514;28;20045;-63
2021/06/14 00:30:48;;;;;;;4.82;1.60;;;;;;;15.91;50.50;97281.38;5032938;28;20064;-63
2021/06/14 00:33:16;;;;;;;2.80;1.30;;;;;;;15.86;50.40;97279.81;5039172;28;20500;-65
2021/06/14 00:35:43;;;;;;;3.55;1.23;;;;;;;15.76;50.77;97280.53;5043954;28;20080;-64
2021/06/14 00:38:09;;;;;;;6.38;1.77;;;;;;;15.76;51.06;97279.75;5036750;28;20041;-66
2021/06/14 00:40:35;;;;;;;3.05;1.48;;;;;;;15.82;50.67;97278.19;5042949;28;20118;-65
2021/06/14 00:43:03;;;;;;;4.70;1.63;;;;;;;15.70;51.06;97270.22;5042168;28;20514;-65
2021/06/14 00:45:31;;;;;;;3.05;1.40;;;;;;;15.67;51.06;97267.03;5038566;28;20084;-64
2021/06/14 00:47:59;;;;;;;3.53;1.10;;;;;;;15.76;50.76;97271.47;5042388;28;20647;-63
2021/06/14 00:50:52;;;;;;;3.15;1.48;;;;;;;15.67;51.02;97263.50;5030416;28;20143;-63
2021/06/14 00:53:22;;;;;;;4.25;1.40;;;;;;;15.67;50.87;97263.50;5030859;28;20108;-65
2021/06/14 00:55:48;;;;;;;3.70;1.52;;;;;;;15.60;51.16;97255.97;5039608;28;20044;-65
2021/06/14 00:58:15;;;;;;;5.30;2.03;;;;;;;15.60;51.28;97246.91;5039798;28;20037;-64
2021/06/14 01:00:40;;;;;;;4.68;1.08;;;;;;;15.58;50.88;97249.25;5045046;28;20099;-66
2021/06/14 01:03:07;;;;;;;6.07;1.70;;;;;;;15.60;50.78;97257.94;5060182;28;20040;-66
2021/06/14 01:05:41;;;;;;;3.17;1.60;;;;;;;15.60;50.64;97246.91;5053899;28;20037;-66
2021/06/14 01:08:07;;;;;;;3.45;1.27;;;;;;;15.56;50.48;97244.13;5038882;28;20048;-65
2021/06/14 01:10:34;;;;;;;3.72;1.60;;;;;;;15.49;50.73;97247.63;5042926;28;20513;-66
2021/06/14 01:13:11;;;;;;;4.32;1.88;;;;;;;15.40;51.37;97246.38;5022178;28;20524;-65
2021/06/14 01:15:53;;;;;;;4.35;1.35;;;;;;;15.43;50.95;97240.88;5038265;28;20490;-64
2021/06/14 01:18:25;;;;;;;4.65;1.30;;;;;;;15.52;50.41;97245.25;5006602;28;20045;-64
2021/06/14 01:21:11;;;;;;;3.63;1.40;;;;;;;15.38;51.04;97240.47;5043163;28;20045;-64
2021/06/14 01:24:03;;;;;;;3.70;1.50;;;;;;;15.43;50.57;97243.66;5021168;28;20096;-64
2021/06/14 01:26:35;;;;;;;6.53;1.80;;;;;;;15.50;50.10;97229.06;5017194;28;20060;-65
2021/06/14 01:29:02;;;;;;;5.45;1.35;;;;;;;15.45;50.36;97229.47;5023346;28;20042;-64
2021/06/14 01:31:30;;;;;;;3.55;1.48;;;;;;;15.54;49.56;97220.81;5019567;28;20044;-65
2021/06/14 01:33:57;;;;;;;5.65;1.45;;;;;;;15.47;50.01;97216.06;5021892;28;20050;-66
2021/06/14 01:36:26;;;;;;;8.50;1.65;;;;;;;15.45;50.01;97223.94;5017811;28;20525;-66
2021/06/14 01:38:54;;;;;;;3.22;1.50;;;;;;;15.45;49.94;97210.16;5005072;28;20033;-64
2021/06/14 01:41:22;;;;;;;4.10;1.63;;;;;;;15.54;49.11;97205.06;5017264;28;20475;-65
2021/06/14 01:43:48;;;;;;;3.35;1.08;;;;;;;15.41;49.80;97214.84;5022491;28;20120;-65
2021/06/14 01:46:20;;;;;;;3.83;1.30;;;;;;;15.60;48.67;97205.47;5027335;28;20053;-65
2021/06/14 01:48:46;;;;;;;2.70;1.33;;;;;;;15.53;49.16;97208.22;5034093;28;20179;-63
2021/06/14 01:51:14;;;;;;;3.35;1.50;;;;;;;15.63;48.48;97204.72;5037671;28;20040;-64
2021/06/14 01:53:40;;;;;;;2.70;1.65;;;;;;;15.57;49.17;97201.50;5040850;28;20122;-63
2021/06/14 01:56:07;;;;;;;4.00;1.40;;;;;;;15.55;48.80;97203.88;5036585;28;20442;-67
2021/06/14 01:58:35;;;;;;;5.47;2.03;;;;;;;15.52;48.47;97201.09;5041388;28;20041;-65
2021/06/14 02:01:01;;;;;;;2.60;1.30;;;;;;;15.46;48.96;97206.97;5038809;28;20044;-64
2021/06/14 02:03:29;;;;;;;7.13;1.45;;;;;;;15.51;48.77;97199.53;5037786;28;20087;-64
2021/06/14 02:05:55;;;;;;;3.80;1.42;;;;;;;15.47;48.70;97186.50;5024250;28;20509;-65
2021/06/14 02:08:22;;;;;;;3.28;1.42;;;;;;;15.41;49.31;97196.31;5037510;28;20049;-64
2021/06/14 02:10:48;;;;;;;4.45;1.50;;;;;;;15.40;49.00;97194.72;5041158;28;20087;-65
2021/06/14 02:13:15;;;;;;;2.08;1.15;;;;;;;15.35;49.55;97189.56;5036130;28;20513;-64
2021/06/14 02:15:40;;;;;;;4.75;1.42;;;;;;;15.25;50.04;97191.13;5042700;28;20048;-65
2021/06/14 02:18:09;;;;;;;4.03;1.60;;;;;;;15.22;50.30;97186.34;5036983;28;20041;-64
2021/06/14 02:20:35;;;;;;;3.85;1.60;;;;;;;15.12;50.58;97189.03;5042469;28;20053;-63
2021/06/14 02:23:01;;;;;;;3.40;1.70;;;;;;;15.07;50.90;97192.94;5041269;28;20053;-64
2021/06/14 02:25:27;;;;;;;4.82;2.25;;;;;;;14.98;51.29;97195.25;5038569;28;20080;-63
2021/06/14 02:27:53;;;;;;;3.42;1.40;;;;;;;14.96;50.69;97187.34;5022204;28;20106;-66
2021/06/14 02:30:23;;;;;;;8.32;1.83;;;;;;;14.97;50.88;97188.16;5002912;28;20040;-64
2021/06/14 02:32:50;;;;;;;2.60;1.27;;;;;;;14.88;51.57;97191.25;5042653;28;20105;-65
2021/06/14 02:35:15;;;;;;;3.33;1.48;;;;;;;14.81;52.10;97192.00;5033447;28;20127;-64
2021/06/14 02:37:48;;;;;;;4.47;1.17;;;;;;;14.80;51.49;97193.19;5041115;28;20120;-65
2021/06/14 02:40:15;;;;;;;4.30;1.50;;;;;;;14.85;51.65;97198.31;5036316;28;20068;-65
2021/06/14 02:42:43;;;;;;;5.32;1.70;;;;;;;14.75;52.22;97195.47;5039829;28;20048;-65
2021/06/14 02:45:09;;;;;;;5.18;1.77;;;;;;;14.70;51.78;97191.13;5034455;28;20048;-67
2021/06/14 02:47:36;;;;;;;5.10;2.10;;;;;;;14.70;52.32;97197.41;5054023;28;20043;-65
2021/06/14 02:50:05;;;;;;;5.80;1.70;;;;;;;14.71;51.91;97198.19;5063315;28;20052;-65
2021/06/14 02:52:32;;;;;;;3.70;1.40;;;;;;;14.62;52.74;97198.56;5062330;28;20045;-64
2021/06/14 02:55:03;;;;;;;6.00;1.60;;;;;;;14.59;52.65;97204.81;5044718;28;20049;-64
2021/06/14 02:57:30;;;;;;;4.07;2.10;;;;;;;14.67;51.72;97198.19;5038275;28;20041;-64
2021/06/14 02:59:56;;;;;;;5.03;1.48;;;;;;;14.62;52.13;97200.50;5037663;28;20076;-63
2021/06/14 03:02:24;;;;;;;3.97;1.40;;;;;;;14.60;52.35;97189.84;5034729;28;20084;-64
2021/06/14 03:04:51;;;;;;;2.22;1.45;;;;;;;14.56;52.39;97193.72;5039390;28;20052;-66
2021/06/14 03:07:27;;;;;;;5.60;1.90;;;;;;;14.59;52.37;97191.03;5035961;28;20147;-66
2021/06/14 03:09:53;;;;;;;3.92;1.90;;;;;;;14.54;52.55;97186.63;5040100;28;20071;-64
2021/06/14 03:12:19;;;;;;;4.97;1.70;;;;;;;14.55;52.38;97190.19;5035440;28;20486;-65
2021/06/14 03:14:46;;;;;;;3.55;1.83;;;;;;;14.43;53.00;97184.97;5040724;28;20435;-64
2021/06/14 03:17:13;;;;;;;7.32;1.77;;;;;;;14.45;52.77;97185.38;5035274;28;20397;-64
2021/06/14 03:19:40;;;;;;;4.93;1.65;;;;;;;14.37;53.76;97179.00;5041098;28;20041;-64
2021/06/14 03:22:09;;;;;;;6.35;1.80;;;;;;;14.34;53.66;97168.75;5037636;28;20036;-63
2021/06/14 03:24:36;;;;;;;3.95;1.83;;;;;;;14.37;53.34;97173.50;5040093;28;20507;-65
2021/06/14 03:27:02;;;;;;;5.47;1.50;;;;;;;14.41;53.40;97174.31;5039107;28;20081;-63
2021/06/14 03:29:28;;;;;;;6.80;2.28;;;;;;;14.39;53.18;97173.91;5035725;28;20052;-65
2021/06/14 03:31:54;;;;;;;6.03;1.83;;;;;;;14.44;52.99;97172.75;5041208;28;20041;-65
2021/06/14 03:34:21;;;;;;;4.75;1.45;;;;;;;14.42;52.94;97170.41;5035246;28;20040;-65
2021/06/14 03:36:48;;;;;;;6.40;1.83;;;;;;;14.36;53.63;97168.38;5048963;28;20060;-64
2021/06/14 03:39:17;;;;;;;2.22;1.27;;;;;;;14.36;54.10;97174.66;5061846;28;20059;-64
2021/06/14 03:41:44;;;;;;;5.80;1.60;;;;;;;14.32;53.68;97176.59;5042375;28;20037;-66
2021/06/14 03:44:10;;;;;;;6.68;2.03;;;;;;;14.29;53.99;97174.59;5047205;28;20075;-65
2021/06/14 03:46:36;;;;;;;6.20;1.98;;;;;;;14.29;54.19;97180.88;5066147;28;20122;-64
2021/06/14 03:49:01;;;;;;;5.72;1.73;;;;;;;14.31;54.54;97186.03;5044766;28;20104;-65
2021/06/14 03:51:27;;;;;;;2.85;1.67;;;;;;;14.24;54.96;97180.44;5026823;28;20076;-66
2021/06/14 03:53:58;;;;;;;3.63;1.60;;;;;;;14.24;54.74;97185.94;5024781;28;20128;-66
2021/06/14 03:56:26;;;;;;;3.08;1.48;;;;;;;14.17;55.56;97191.38;5028948;28;20044;-65
2021/06/14 03:58:52;;;;;;;3.97;2.08;;;;;;;14.11;55.57;97185.44;5044506;28;20444;-65
2021/06/14 04:01:17;;;;;;;5.93;1.80;;;;;;;14.13;55.53;97189.41;5021932;28;20045;-65
2021/06/14 04:03:46;;;;;;;4.15;2.03;;;;;;;14.13;55.41;97183.09;5040422;28;20044;-65
2021/06/14 04:06:12;;;;;;;3.80;2.38;;;;;;;14.20;55.84;97185.91;5020362;28;20473;-65
2021/06/14 04:08:37;;;;;;;8.25;1.88;;;;;;;14.26;55.60;97191.88;5025228;28;20081;-65
2021/06/14 04:11:03;;;;;;;3.15;1.75;;;;;;;14.33;55.19;97190.00;5024279;28;20115;-65
2021/06/14 04:13:29;;;;;;;5.03;1.77;;;;;;;14.39;55.36;97186.91;5043515;28;20536;-65
2021/06/14 04:15:54;;;;;;;3.65;2.20;;;;;;;14.43;54.76;97187.72;5044454;28;20037;-66
2021/06/14 04:18:20;;;;;;;10.10;1.95;;;;;;;14.44;54.70;97184.59;5037977;28;20041;-64
2021/06/14 04:20:45;;;;;;;3.08;1.33;;;;;;;14.54;54.20;97188.59;5043891;28;20037;-70
2021/06/14 04:23:11;;;;;;;4.50;1.60;;;;;;;14.56;54.38;97185.47;5039850;28;20056;-64
2021/06/14 04:25:36;;;;;;;4.95;2.13;;;;;;;14.61;54.41;97194.19;5044592;28;20063;-64
2021/06/14 04:28:03;;;;;;;4.03;1.98;;;;;;;14.67;55.46;97194.63;5045054;28;20106;-65
2021/06/14 04:30:29;;;;;;;4.82;2.00;;;;;;;14.66;55.17;97193.84;5042180;28;20128;-64
2021/06/14 04:32:54;;;;;;;5.63;1.88;;;;;;;14.63;54.80;97183.56;5042700;28;20037;-65
2021/06/14 04:35:20;;;;;;;5.25;1.80;;;;;;;14.80;54.58;97186.84;5038720;28;20033;-64
2021/06/14 04:37:45;;;;;;;5.28;1.80;;;;;;;14.90;54.59;97186.94;5043498;28;20502;-66
2021/06/14 04:40:11;;;;;;;5.63;1.90;;;;;;;15.21;54.17;97192.25;5039053;28;20041;-65
2021/06/14 04:42:36;;;;;;;4.63;1.80;;;;;;;15.41;53.52;97184.47;5042161;28;20037;-63
2021/06/14 04:45:03;;;;;;;3.60;1.60;;;;;;;15.56;53.06;97188.13;5042994;28;20142;-66
2021/06/14 04:47:28;;;;;;;2.70;1.35;;;;;;;15.41;52.93;97177.00;5033110;28;20533;-63
2021/06/14 04:49:54;;;;;;;5.90;1.60;;;;;;;15.83;52.16;97172.06;5044035;28;20132;-66
2021/06/14 04:52:19;;;;;;;4.10;1.95;;;;;;;16.63;49.66;97179.28;5038275;28;20638;-65
2021/06/14 04:54:45;;;;;;;2.58;1.45;;;;;;;16.90;49.15;97179.72;5025236;28;20501;-65
2021/06/14 04:57:10;;;;;;;5.80;1.67;;;;;;;17.06;48.35;97184.84;5040409;28;20128;-64
2021/06/14 04:59:36;;;;;;;4.00;1.40;;;;;;;16.75;49.52;97189.97;5043004;28;20040;-64
2021/06/14 05:02:02;;;;;;;4.55;1.50;;;;;;;17.00;49.18;97186.44;5043314;28;20076;-65
2021/06/14 05:04:27;;;;;;;6.93;1.73;;;;;;;17.22;48.66;97186.41;5037864;28;20048;-63
2021/06/14 05:06:52;;;;;;;6.53;1.67;;;;;;;16.92;49.29;97191.16;5042229;28;20371;-63
2021/06/14 05:09:18;;;;;;;3.95;1.35;;;;;;;17.34;48.71;97188.72;5037716;28;20398;-64
2021/06/14 05:11:44;;;;;;;8.63;1.90;;;;;;;17.62;47.82;97184.28;5042540;28;20377;-64
2021/06/14 05:14:09;;;;;;;2.40;1.58;;;;;;;17.61;48.09;97186.28;5035591;28;20132;-64
2021/06/14 05:16:34;;;;;;;4.32;1.60;;;;;;;17.45;48.77;97183.16;5042074;28;20451;-64
2021/06/14 05:19:00;;;;;;;4.88;1.65;;;;;;;17.89;47.54;97182.59;5042305;28;20052;-64
2021/06/14 05:21:25;;;;;;;5.10;1.80;;;;;;;18.24;47.97;97186.41;5036490;28;20143;-64
2021/06/14 05:23:51;;;;;;;4.13;1.50;;;;;;;19.26;45.70;97185.16;5042013;28;20063;-66
2021/06/14 05:26:17;;;;;;;4.15;1.75;;;;;;;20.07;42.72;97186.63;5037798;28;20048;-65
2021/06/14 05:28:42;;;;;;;6.07;1.30;;;;;;;19.17;44.08;97190.41;5041062;28;20049;-65
2021/06/14 05:31:08;;;;;;;4.70;1.58;;;;;;;19.93;42.82;97193.16;5036810;28;20037;-65
2021/06/14 05:33:33;;;;;;;4.88;1.63;;;;;;;19.14;44.14;97198.78;5042659;28;20057;-64
2021/06/14 05:35:59;;;;;;;11.40;1.70;;;;;;;19.17;44.97;97195.19;5043899;28;20095;-64
2021/06/14 05:38:24;;;;;;;3.03;1.45;;;;;;;19.07;45.22;97189.34;5039088;28;20136;-65
2021/06/14 05:40:49;;;;;;;6.00;1.60;;;;;;;20.22;42.21;97178.88;5044078;28;20106;-65
2021/06/14 05:43:15;;;;;;;4.00;1.48;;;;;;;19.17;45.40;97181.31;5048955;28;20048;-64
2021/06/14 05:45:40;;;;;;;6.78;1.50;;;;;;;17.85;47.90;97189.34;5060234;28;20048;-65
2021/06/14 05:48:06;;;;;;;2.05;1.25;;;;;;;18.66;45.93;97181.72;5056060;28;20083;-62
2021/06/14 05:50:32;;;;;;;2.95;1.50;;;;;;;18.50;46.37;97182.25;5049372;28;20041;-63
2021/06/14 05:52:58;;;;;;;6.68;1.42;;;;;;;18.72;46.46;97180.09;5043807;28;20041;-63
2021/06/14 05:55:23;;;;;;;3.67;1.15;;;;;;;18.53;46.84;97177.88;5038388;28;20110;-64
2021/06/14 05:57:49;;;;;;;4.25;1.52;;;;;;;18.37;46.80;97170.06;5062312;28;20074;-63
2021/06/14 06:00:14;;;;;;;4.85;1.45;;;;;;;18.24;47.53;97178.06;5050959;28;20182;-65
2021/06/14 06:02:40;;;;;;;4.85;2.22;;;;;;;18.71;46.78;97174.97;5020308;28;20048;-65
2021/06/14 06:05:09;;;;;;;6.88;1.77;;;;;;;18.84;46.87;97178.84;5033296;28;20033;-64
2021/06/14 06:07:35;;;;;;;3.47;1.33;;;;;;;19.48;45.62;97174.63;5033289;28;20116;-65
2021/06/14 06:10:02;;;;;;;3.47;1.52;;;;;;;19.74;45.43;97177.16;5034592;28;20041;-65
2021/06/14 06:12:27;;;;;;;5.50;1.90;;;;;;;18.81;46.49;97179.66;5020601;28;20041;-65
2021/06/14 06:14:53;;;;;;;3.72;1.70;;;;;;;18.78;45.85;97174.09;5041955;28;20049;-65
2021/06/14 06:17:18;;;;;;;5.82;1.73;;;;;;;18.56;47.55;97176.25;5036110;28;20214;-65
2021/06/14 06:19:44;;;;;;;6.18;1.38;;;;;;;18.62;46.84;97169.06;5025115;28;20036;-65
2021/06/14 06:22:09;;;;;;;4.07;1.90;;;;;;;19.07;46.29;97169.13;5037423;28;20134;-64
2021/06/14 06:24:35;;;;;;;4.97;1.60;;;;;;;19.26;46.64;97171.28;5040710;28;20191;-65
2021/06/14 06:27:00;;;;;;;6.47;1.42;;;;;;;18.87;46.97;97172.47;5045779;28;20501;-66
2021/06/14 06:29:27;;;;;;;4.93;2.20;;;;;;;19.61;45.27;97168.53;5052002;28;20102;-67
2021/06/14 06:31:52;;;;;;;5.43;1.67;;;;;;;19.13;45.92;97161.13;5053254;28;20441;-65
2021/06/14 06:34:18;;;;;;;5.97;1.70;;;;;;;19.31;46.05;97166.50;5042702;28;20045;-65
2021/06/14 06:36:43;;;;;;;7.57;1.42;;;;;;;20.14;44.85;97169.84;5044001;28;20044;-65
2021/06/14 06:39:08;;;;;;;6.22;1.85;;;;;;;19.69;45.91;97164.47;5035348;28;20052;-65
2021/06/14 06:41:34;;;;;;;4.20;1.52;;;;;;;19.38;45.38;97167.19;5041752;28;20086;-65
2021/06/14 06:43:59;;;;;;;5.10;1.70;;;;;;;20.53;43.75;97167.72;5041756;28;20127;-65
2021/06/14 06:46:25;;;;;;;5.47;2.30;;;;;;;19.73;44.11;97165.22;5035630;28;20053;-66
2021/06/14 06:48:50;;;;;;;4.93;1.80;;;;;;;19.85;44.97;97159.13;5041208;28;20056;-66
2021/06/14 06:51:15;;;;;;;2.67;1.52;;;;;;;20.19;45.06;97154.69;5036821;28;20045;-66
2021/06/14 06:53:41;;;;;;;3.15;1.70;;;;;;;20.31;44.53;97156.91;5039886;28;20037;-66
2021/06/14 06:56:07;;;;;;;5.28;1.50;;;;;;;20.78;43.42;97161.78;5015572;28;20052;-64
2021/06/14 06:58:32;;;;;;;4.60;1.75;;;;;;;20.52;43.65;97161.34;5020556;28;20106;-64
2021/06/14 07:00:58;;;;;;;3.08;1.40;;;;;;;21.50;42.62;97163.25;5031251;28;20052;-64
2021/06/14 07:03:24;;;;;;;4.47;1.45;;;;;;;22.10;40.61;97157.66;5035476;28;20916;-65
2021/06/14 07:05:50;;;;;;;5.68;1.33;;;;;;;22.23;41.53;97166.13;5040435;28;20386;-65
2021/06/14 07:08:15;;;;;;;4.53;1.52;;;;;;;21.37;42.21;97160.28;5035356;28;20087;-65
2021/06/14 07:10:43;;;;;;;3.70;1.27;;;;;;;23.28;39.45;97156.81;5040333;28;20480;-66
2021/06/14 07:13:09;;;;;;;4.72;1.88;;;;;;;22.76;39.48;97149.34;5035502;28;20115;-64
2021/06/14 07:15:34;;;;;;;6.57;1.48;;;;;;;23.63;37.98;97159.84;5039946;28;20488;-66
2021/06/14 07:18:00;;;;;;;3.22;1.50;;;;;;;23.37;37.27;97158.97;5020067;28;20042;-64
2021/06/14 07:20:28;;;;;;;3.17;1.25;;;;;;;23.73;37.05;97164.34;5016462;28;20103;-65
2021/06/14 07:22:53;;;;;;;2.63;1.38;;;;;;;22.15;41.37;97165.50;5020358;28;20048;-66
2021/06/14 07:25:19;;;;;;;4.30;1.67;;;;;;;21.80;41.07;97167.06;5031749;28;20409;-63
2021/06/14 07:27:44;;;;;;;3.65;1.50;;;;;;;23.18;39.08;97164.25;5041257;28;20516;-66
2021/06/14 07:30:11;;;;;;;4.95;1.45;;;;;;;23.25;37.79;97157.69;5018644;28;20385;-64
2021/06/14 07:32:38;;;;;;;4.15;1.50;;;;;;;21.89;40.18;97164.47;5041718;28;20056;-66
2021/06/14 07:35:04;;;;;;;3.70;1.38;;;;;;;22.22;40.52;97167.34;5038464;28;20041;-67
2021/06/14 07:37:29;;;;;;;2.90;1.48;;;;;;;21.58;41.10;97168.25;5039906;28;20135;-66
2021/06/14 07:39:55;;;;;;;9.02;3.25;;;;;;;21.82;41.35;97159.03;5040959;28;20179;-65
2021/06/14 07:42:21;;;;;;;3.25;1.50;;;;;;;22.14;40.30;97161.13;5035267;28;20041;-65
2021/06/14 07:44:46;;;;;;;4.82;1.88;;;;;;;22.14;41.29;97156.34;5039394;28;20068;-65
2021/06/14 07:47:12;;;;;;;3.83;1.42;;;;;;;21.88;41.62;97157.34;5026176;28;20099;-65
2021/06/14 07:49:39;;;;;;;5.43;1.55;;;;;;;23.26;39.14;97151.69;5022667;28;20040;-65
2021/06/14 07:52:06;;;;;;;4.20;1.60;;;;;;;23.05;40.07;97164.19;5030811;28;20295;-65
2021/06/14 07:54:31;;;;;;;3.92;1.73;;;;;;;22.68;39.23;97166.28;5036916;28;20045;-65
2021/06/14 07:56:57;;;;;;;6.32;1.60;;;;;;;23.53;38.43;97160.94;5025171;28;20505;-65
2021/06/14 07:59:22;;;;;;;3.67;1.60;;;;;;;24.09;37.22;97157.72;5032123;28;20569;-65
2021/06/14 08:01:48;;;;;;;6.88;1.83;;;;;;;23.22;38.84;97150.97;5038571;28;20405;-66
2021/06/14 08:04:13;;;;;;;12.70;1.98;;;;;;;23.80;37.94;97157.78;5034577;28;20494;-67
2021/06/14 08:06:39;;;;;;;4.43;1.40;;;;;;;23.31;39.45;97152.34;5023012;28;20045;-65
2021/06/14 08:09:09;;;;;;;4.25;1.90;;;;;;;22.15;40.70;97155.13;5024854;28;20056;-65
2021/06/14 08:11:36;;;;;;;5.63;1.70;;;;;;;22.19;42.39;97151.47;5029261;28;20045;-64
2021/06/14 08:14:04;;;;;;;4.07;1.70;;;;;;;22.48;40.94;97146.81;5034430;28;20045;-65
2021/06/14 08:16:30;;;;;;;4.70;1.70;;;;;;;23.17;40.98;97151.50;5040347;28;20144;-65
2021/06/14 08:26:36;;;;;;;4.90;1.77;;;;;;;23.54;39.41;97152.09;5031094;28;20045;-65
2021/06/14 08:29:02;;;;;;;5.90;1.70;;;;;;;23.06;39.21;97162.19;5041287;28;20135;-65
2021/06/14 08:31:32;;;;;;;4.10;1.85;;;;;;;23.02;40.44;97153.88;5058245;28;20082;-66
2021/06/14 08:33:57;;;;;;;8.38;2.17;;;;;;;23.11;39.71;97158.84;5057119;28;20045;-65
2021/06/14 08:36:24;;;;;;;4.63;1.50;;;;;;;22.61;40.30;97154.50;5044951;28;20491;-65
2021/06/14 08:38:49;;;;;;;7.22;1.55;;;;;;;23.74;37.61;97149.13;5043574;28;20045;-64
2021/06/14 08:41:20;;;;;;;4.60;1.80;;;;;;;22.82;39.74;97156.75;5039292;28;20448;-66
2021/06/14 08:43:51;;;;;;;4.30;1.95;;;;;;;24.03;39.87;97149.09;5042723;28;20489;-64
2021/06/14 08:46:17;;;;;;;3.85;1.98;;;;;;;23.15;39.49;97151.16;5037860;28;20057;-68
2021/06/14 08:48:43;;;;;;;4.93;1.63;;;;;;;22.95;40.59;97142.88;5042717;28;20370;-64
2021/06/14 08:51:12;;;;;;;5.10;1.92;;;;;;;23.85;37.99;97132.84;5036363;28;20106;-67
2021/06/14 08:53:38;;;;;;;7.63;1.70;;;;;;;23.48;37.50;97135.09;5042751;28;20422;-65
2021/06/14 08:56:05;;;;;;;2.95;1.60;;;;;;;23.98;38.68;97129.28;5041090;28;20492;-66
2021/06/14 08:58:32;;;;;;;4.43;1.80;;;;;;;23.74;37.88;97123.97;5042128;28;20396;-65
2021/06/14 09:00:57;;;;;;;2.63;1.73;;;;;;;23.00;38.60;97122.03;5047990;28;20092;-66
2021/06/14 09:03:25;;;;;;;4.03;1.88;;;;;;;23.05;38.34;97125.09;5037503;28;20718;-66
2021/06/14 09:05:50;;;;;;;6.53;1.75;;;;;;;23.60;38.41;97129.97;5043477;28;20036;-67
2021/06/14 09:08:15;;;;;;;3.35;1.30;;;;;;;24.73;36.76;97115.75;5052279;28;20045;-65
2021/06/14 09:10:41;;;;;;;5.05;1.60;;;;;;;24.72;35.91;97111.38;5050570;28;20052;-65
2021/06/14 09:13:12;;;;;;;3.95;1.80;;;;;;;23.48;38.62;97104.34;5030731;28;20048;-65
2021/06/14 09:15:38;;;;;;;5.07;1.98;;;;;;;23.64;38.80;97106.28;5043647;28;20071;-65
2021/06/14 09:18:19;;;;;;;5.43;2.03;;;;;;;24.46;37.00;97105.00;5037850;28;20039;-67
2021/06/14 09:20:53;;;;;;;4.65;1.60;;;;;;;24.49;36.95;97097.72;5041867;28;20049;-66
2021/06/14 09:23:19;;;;;;;3.35;1.38;;;;;;;24.36;38.46;97106.94;5035968;28;20045;-65
2021/06/14 09:25:49;;;;;;;3.25;1.83;;;;;;;24.45;38.37;97103.44;5042099;28;20098;-66
2021/06/14 09:28:14;;;;;;;4.03;1.65;;;;;;;23.79;38.70;97105.88;5035421;28;20511;-66
2021/06/14 09:30:39;;;;;;;3.67;1.70;;;;;;;24.11;38.69;97109.72;5023909;28;20041;-71
2021/06/14 09:33:20;;;;;;;3.22;1.42;;;;;;;24.11;38.89;97102.13;5036044;28;20045;-66
2021/06/14 09:35:46;;;;;;;4.03;1.75;;;;;;;23.92;37.02;97103.88;5042191;28;20389;-66
2021/06/14 09:38:15;;;;;;;4.43;1.60;;;;;;;24.68;36.06;97096.69;5027862;28;20036;-66
2021/06/14 09:40:49;;;;;;;4.80;1.50;;;;;;;25.22;35.30;97097.66;5041586;28;20033;-67
2021/06/14 09:43:23;;;;;;;2.92;1.23;;;;;;;25.34;35.74;97093.25;5036443;28;20049;-66
2021/06/14 09:45:49;;;;;;;3.15;1.50;;;;;;;26.17;33.03;97099.34;5042564;28;20301;-65
2021/06/14 09:48:17;;;;;;;5.22;1.50;;;;;;;25.86;34.24;97090.94;5036528;28;20131;-66
2021/06/14 09:50:44;;;;;;;2.90;1.60;;;;;;;24.35;36.33;97096.19;5038888;28;20073;-64
2021/06/14 09:53:12;;;;;;;4.47;1.77;;;;;;;24.72;35.77;97085.38;5035153;28;20111;-64
2021/06/14 09:55:40;;;;;;;6.85;1.65;;;;;;;24.63;35.98;97086.06;5046693;28;20128;-65
2021/06/14 09:58:13;;;;;;;5.40;1.85;;;;;;;24.56;37.45;97084.31;5037688;28;20045;-66
2021/06/14 10:00:56;;;;;;;5.15;1.73;;;;;;;24.57;36.52;97085.09;5046451;28;20041;-65
2021/06/14 10:03:24;;;;;;;2.30;1.40;;;;;;;24.54;37.27;97086.78;5037285;28;20396;-64
2021/06/14 10:05:52;;;;;;;4.07;1.42;;;;;;;24.73;35.07;97086.97;5042059;28;20052;-65
2021/06/14 10:08:27;;;;;;;4.00;1.30;;;;;;;25.29;35.28;97080.59;5035287;28;20489;-64
2021/06/14 10:11:19;;;;;;;5.53;1.63;;;;;;;26.14;34.08;97083.44;5040893;28;20146;-66
2021/06/14 10:13:47;;;;;;;4.82;1.73;;;;;;;25.90;34.78;97080.34;5036860;28;20040;-65
2021/06/14 10:16:15;;;;;;;3.17;1.27;;;;;;;25.95;34.13;97076.97;5034689;28;20503;-65
2021/06/14 10:18:43;;;;;;;4.53;1.35;;;;;;;27.06;32.49;97074.44;5041009;28;20045;-65
2021/06/14 10:21:29;;;;;;;5.00;1.55;;;;;;;26.48;33.24;97078.88;5036451;28;20374;-65
2021/06/14 10:23:57;;;;;;;8.18;2.33;;;;;;;26.98;33.08;97076.78;5040784;28;20032;-65
2021/06/14 10:26:24;;;;;;;2.97;1.60;;;;;;;26.38;32.27;97078.06;5025714;28;20057;-65
2021/06/14 10:28:50;;;;;;;4.40;1.40;;;;;;;27.26;32.22;97069.16;5039382;28;20120;-65
2021/06/14 10:31:16;;;;;;;4.78;1.60;;;;;;;26.32;32.03;97057.44;5035781;28;20132;-65
2021/06/14 10:33:48;;;;;;;4.47;1.77;;;;;;;25.91;33.41;97070.66;5033468;28;20467;-65
2021/06/14 10:36:14;;;;;;;6.93;2.45;;;;;;;26.63;33.28;97060.22;5037225;28;20069;-65
2021/06/14 10:38:46;;;;;;;4.80;1.55;;;;;;;26.64;35.89;97055.38;5039937;28;20065;-64
2021/06/14 10:41:11;;;;;;;6.30;1.42;;;;;;;27.06;33.71;97064.00;5030245;28;20155;-66
2021/06/14 10:43:39;;;;;;;3.20;1.33;;;;;;;27.25;32.15;97050.69;5040240;28;20104;-64
2021/06/14 10:46:05;;;;;;;4.53;1.50;;;;;;;26.16;33.57;97055.69;5036853;28;20039;-64
2021/06/14 10:48:33;;;;;;;8.55;1.42;;;;;;;25.42;35.65;97049.69;5039307;28;20045;-65
2021/06/14 10:51:01;;;;;;;4.40;1.42;;;;;;;25.42;35.57;97048.91;5030157;28;20067;-64
2021/06/14 10:53:29;;;;;;;5.07;1.40;;;;;;;25.80;34.75;97043.03;5035840;28;20037;-64
2021/06/14 10:55:56;;;;;;;4.88;1.30;;;;;;;26.21;33.96;97043.84;5041479;28;20044;-63
2021/06/14 10:58:22;;;;;;;4.72;1.75;;;;;;;25.70;34.67;97042.22;5025494;28;20060;-65
2021/06/14 11:01:04;;;;;;;4.53;1.45;;;;;;;26.59;35.65;97037.06;5041349;28;20132;-65
2021/06/14 11:03:47;;;;;;;2.95;1.30;;;;;;;25.95;35.11;97040.50;5032772;28;20045;-65
2021/06/14 11:06:22;;;;;;;5.40;1.40;;;;;;;26.62;34.24;97041.78;5032102;28;20045;-64
2021/06/14 11:08:59;;;;;;;2.92;1.20;;;;;;;27.33;32.93;97025.84;5037957;28;20053;-64
2021/06/14 11:11:25;;;;;;;2.55;1.40;;;;;;;26.13;33.33;97042.59;5051751;28;20072;-65
2021/06/14 11:13:51;;;;;;;4.60;1.60;;;;;;;25.62;35.16;97032.50;5054701;28;20052;-64
2021/06/14 11:16:18;;;;;;;14.55;1.70;;;;;;;25.55;32.37;97036.38;5037572;28;20049;-62
2021/06/14 11:18:44;;;;;;;4.70;1.35;;;;;;;26.27;33.71;97029.97;5036894;28;20049;-65
2021/06/14 11:21:16;;;;;;;6.47;1.30;;;;;;;27.19;31.47;97021.66;5038239;28;20103;-66
2021/06/14 11:23:44;;;;;;;4.82;1.60;;;;;;;27.70;31.22;97019.38;5042866;28;20037;-65
2021/06/14 11:26:12;;;;;;;4.95;1.55;;;;;;;26.56;33.97;97020.34;5037112;28;20044;-66
2021/06/14 11:28:43;;;;;;;5.28;1.27;;;;;;;26.25;33.58;97016.44;5042194;28;20041;-65
2021/06/14 11:31:17;;;;;;;4.53;1.20;;;;;;;26.10;33.33;97012.63;5011677;28;20072;-65
2021/06/14 11:33:44;;;;;;;3.83;1.17;;;;;;;26.92;31.03;97004.78;5038838;28;20036;-65
2021/06/14 11:36:16;;;;;;;3.15;1.30;;;;;;;26.49;31.70;97004.63;5034121;28;20077;-65
2021/06/14 11:38:41;;;;;;;3.78;1.30;;;;;;;26.21;32.62;96998.94;5042031;28;20037;-66
2021/06/14 11:41:07;;;;;;;4.38;1.42;;;;;;;26.53;32.60;96999.63;5034706;28;20125;-65
2021/06/14 11:43:32;;;;;;;2.13;1.00;;;;;;;26.12;31.60;96999.69;5037069;28;20041;-65